Time;durP1;ratioP1;P1;durP2;ratioP2;P2;SDS_P1;SDS_P2;PMS_P1;PMS_P2;Temp;Humidity;BMP_temperature;BMP_pressure;BME280_temperature;BME280_humidity;BME280_pressure;Samples;Min_cycle;Max_cycle;Signal;HPM_P1;HPM_P2
2021/09/16 00:01:06;;;;;;;10.15;9.00;;;;;;;20.47;44.29;99667.72;5114218;28;20024;-80
2021/09/16 00:03:31;;;;;;;9.70;8.85;;;;;;;20.78;44.14;99720.88;5113704;28;20027;-79
2021/09/16 00:05:57;;;;;;;10.18;9.18;;;;;;;20.79;44.18;99716.31;5114976;28;20015;-79
2021/09/16 00:08:22;;;;;;;10.75;9.10;;;;;;;20.97;44.30;99756.41;5115009;28;20028;-80
2021/09/16 00:10:48;;;;;;;10.25;9.13;;;;;;;21.02;44.30;99758.38;5114914;28;20492;-80
2021/09/16 00:13:14;;;;;;;9.95;8.98;;;;;;;20.60;44.29;99702.28;5113570;28;20016;-79
2021/09/16 00:15:39;;;;;;;11.52;8.93;;;;;;;21.04;44.19;99769.69;5113512;28;20111;-80
2021/09/16 00:18:05;;;;;;;9.70;8.52;;;;;;;20.84;43.91;99749.47;5114544;28;20040;-81
2021/09/16 00:20:30;;;;;;;11.57;9.63;;;;;;;20.52;44.08;99686.56;5114491;28;20023;-80
2021/09/16 00:22:56;;;;;;;10.60;9.55;;;;;;;20.94;44.12;99773.00;5114583;28;20098;-81
2021/09/16 00:25:22;;;;;;;11.95;9.10;;;;;;;20.88;44.28;99764.03;5114607;28;20120;-76
2021/09/16 00:27:47;;;;;;;12.57;9.52;;;;;;;20.88;44.33;99764.03;5114626;28;20023;-76
2021/09/16 00:30:13;;;;;;;9.82;8.82;;;;;;;20.65;44.30;99721.16;5114579;28;20108;-76
2021/09/16 00:32:39;;;;;;;11.20;9.05;;;;;;;20.65;44.46;99723.03;5113271;28;20028;-76
2021/09/16 00:35:06;;;;;;;11.05;9.55;;;;;;;20.39;44.44;99676.09;5114696;27;20024;-76
2021/09/16 00:37:31;;;;;;;10.88;9.30;;;;;;;20.72;44.46;99724.53;5114430;28;20024;-75
2021/09/16 00:39:56;;;;;;;10.55;9.45;;;;;;;20.49;44.52;99681.69;5114576;28;20045;-77
2021/09/16 00:42:22;;;;;;;12.02;9.27;;;;;;;20.93;44.36;99755.25;5113091;28;20023;-76
2021/09/16 00:44:47;;;;;;;11.07;8.48;;;;;;;20.26;44.20;99643.16;5114258;28;20143;-77
2021/09/16 00:47:16;;;;;;;12.02;9.32;;;;;;;20.85;44.45;99740.38;5113979;28;20462;-76
2021/09/16 00:49:42;;;;;;;10.05;8.98;;;;;;;20.83;44.37;99734.41;5114183;28;20085;-75
2021/09/16 00:52:09;;;;;;;11.02;8.88;;;;;;;20.79;44.40;99735.94;5114190;28;20028;-75
2021/09/16 00:54:36;;;;;;;10.60;9.15;;;;;;;20.75;44.45;99737.47;5114048;28;20053;-76
2021/09/16 00:57:02;;;;;;;12.40;10.15;;;;;;;20.30;44.39;99675.66;5113883;28;20495;-76
2021/09/16 00:59:29;;;;;;;11.15;8.80;;;;;;;20.21;44.27;99669.88;5113785;28;20023;-76
2021/09/16 01:01:54;;;;;;;11.52;9.48;;;;;;;20.08;44.43;99653.22;5113755;28;20107;-76
2021/09/16 01:04:19;;;;;;;14.73;10.05;;;;;;;20.18;44.67;99678.38;5113751;28;20479;-75
2021/09/16 01:06:46;;;;;;;11.32;9.38;;;;;;;20.53;44.90;99745.34;5113812;28;20069;-76
2021/09/16 01:09:11;;;;;;;11.85;9.75;;;;;;;20.07;44.91;99683.78;5113597;28;20077;-76
2021/09/16 01:11:37;;;;;;;13.60;9.95;;;;;;;19.97;44.93;99670.94;5112532;27;20036;-76
2021/09/16 01:14:03;;;;;;;12.18;9.13;;;;;;;20.42;45.04;99740.84;5112148;28;20023;-76
2021/09/16 01:16:28;;;;;;;12.82;9.85;;;;;;;20.24;44.91;99714.16;5113293;28;20122;-75
2021/09/16 01:18:53;;;;;;;13.20;9.23;;;;;;;20.29;45.18;99730.34;5113302;28;20037;-75
2021/09/16 01:21:22;;;;;;;13.27;9.43;;;;;;;20.14;45.16;99703.22;5113403;28;20020;-76
2021/09/16 01:23:51;;;;;;;17.80;9.93;;;;;;;20.39;45.08;99741.31;5113526;28;20095;-80
2021/09/16 01:26:16;;;;;;;15.15;10.32;;;;;;;19.96;45.05;99680.84;5113670;28;20027;-80
2021/09/16 01:28:42;;;;;;;13.77;9.27;;;;;;;20.33;45.44;99744.91;5113355;28;20016;-79
2021/09/16 01:31:07;;;;;;;12.18;10.00;;;;;;;20.26;45.12;99745.03;5113070;28;20032;-81
2021/09/16 01:33:33;;;;;;;18.70;11.02;;;;;;;19.97;45.27;99716.50;5111791;28;20024;-80
2021/09/16 01:35:58;;;;;;;10.30;9.18;;;;;;;19.70;45.30;99681.34;5113153;28;20084;-80
2021/09/16 01:38:24;;;;;;;11.63;9.23;;;;;;;20.13;45.58;99747.97;5113126;28;20032;-80
2021/09/16 01:40:49;;;;;;;13.27;9.82;;;;;;;19.98;45.50;99726.16;5113373;28;20015;-80
2021/09/16 01:43:15;;;;;;;16.52;11.02;;;;;;;20.09;45.63;99749.50;5111803;28;20164;-79
2021/09/16 01:45:41;;;;;;;11.55;9.80;;;;;;;19.66;45.57;99702.44;5113009;28;20137;-81
2021/09/16 01:48:06;;;;;;;15.85;9.80;;;;;;;19.63;45.79;99713.59;5111636;28;20023;-80
2021/09/16 01:50:32;;;;;;;14.52;11.07;;;;;;;19.92;45.84;99768.13;5112887;28;20080;-80
2021/09/16 01:52:58;;;;;;;13.80;10.18;;;;;;;19.94;45.74;99784.78;5112936;28;20487;-81
2021/09/16 01:55:25;;;;;;;10.07;9.18;;;;;;;19.36;45.71;99688.31;5112963;28;20034;-80
2021/09/16 01:57:51;;;;;;;14.38;9.75;;;;;;;19.87;46.09;99775.22;5111647;28;20035;-80
2021/09/16 02:00:17;;;;;;;13.02;9.95;;;;;;;19.39;46.02;99698.53;5112956;28;20024;-80
2021/09/16 02:02:43;;;;;;;12.95;10.00;;;;;;;19.49;46.29;99725.56;5112683;28;20515;-81
2021/09/16 02:05:10;;;;;;;14.52;10.20;;;;;;;19.74;46.38;99770.91;5112639;28;20167;-81
2021/09/16 02:07:35;;;;;;;11.55;9.60;;;;;;;19.15;46.51;99678.13;5111316;28;20393;-81
2021/09/16 02:10:01;;;;;;;11.77;10.25;;;;;;;19.33;46.45;99702.16;5111489;28;20100;-80
2021/09/16 02:12:27;;;;;;;15.77;10.48;;;;;;;19.42;46.41;99703.44;5112451;28;20023;-80
2021/09/16 02:14:52;;;;;;;12.10;10.18;;;;;;;19.75;46.62;99755.66;5112259;28;20024;-80
2021/09/16 02:17:18;;;;;;;17.30;10.23;;;;;;;19.71;46.61;99743.78;5112083;28;20098;-81
2021/09/16 02:19:43;;;;;;;14.48;10.77;;;;;;;19.78;46.72;99761.38;5112228;28;20050;-80
2021/09/16 02:22:09;;;;;;;15.00;10.07;;;;;;;19.54;46.55;99708.84;5112173;28;20021;-81
2021/09/16 02:24:34;;;;;;;12.63;9.85;;;;;;;19.59;46.68;99727.69;5112292;28;20023;-75
2021/09/16 02:27:00;;;;;;;12.13;10.35;;;;;;;19.70;46.73;99756.34;5112318;28;20112;-75
2021/09/16 02:29:25;;;;;;;12.05;10.82;;;;;;;19.65;46.90;99753.56;5111954;28;20099;-76
2021/09/16 02:31:51;;;;;;;11.32;10.00;;;;;;;19.63;46.85;99751.09;5111998;28;20049;-75
2021/09/16 02:34:16;;;;;;;14.52;10.30;;;;;;;19.36;47.06;99715.06;5110751;28;20022;-75
2021/09/16 02:36:41;;;;;;;12.07;10.88;;;;;;;19.55;47.04;99742.59;5112231;28;20026;-76
2021/09/16 02:39:07;;;;;;;14.65;10.95;;;;;;;19.22;47.04;99687.66;5112073;28;20595;-75
2021/09/16 02:41:32;;;;;;;11.85;10.70;;;;;;;19.29;47.25;99707.13;5112009;28;20031;-75
2021/09/16 02:43:58;;;;;;;11.02;10.10;;;;;;;19.52;47.52;99754.59;5112000;28;20061;-75
2021/09/16 02:46:23;;;;;;;14.35;10.93;;;;;;;19.44;47.79;99752.22;5112010;28;20110;-75
2021/09/16 02:48:49;;;;;;;12.23;9.68;;;;;;;19.22;47.89;99732.38;5111925;28;20051;-75
2021/09/16 02:51:14;;;;;;;14.38;10.85;;;;;;;19.27;47.83;99737.84;5111834;28;20028;-75
2021/09/16 02:53:40;;;;;;;12.30;10.85;;;;;;;18.97;47.88;99689.72;5111822;28;20016;-75
2021/09/16 02:56:05;;;;;;;11.93;10.73;;;;;;;18.86;48.15;99675.28;5111852;28;20122;-75
2021/09/16 02:58:31;;;;;;;11.10;9.95;;;;;;;19.11;48.16;99714.41;5111705;28;20034;-75
2021/09/16 03:00:56;;;;;;;12.38;10.45;;;;;;;19.39;47.89;99738.72;5111865;28;20050;-75
2021/09/16 03:03:22;;;;;;;14.80;9.85;;;;;;;19.44;47.86;99748.72;5111776;28;20411;-75
2021/09/16 03:05:47;;;;;;;16.10;10.90;;;;;;;19.20;47.97;99711.19;5111711;28;20023;-75
2021/09/16 03:08:13;;;;;;;13.80;10.88;;;;;;;19.20;47.87;99719.22;5111797;28;20016;-76
2021/09/16 03:10:39;;;;;;;12.00;10.48;;;;;;;19.02;47.88;99676.47;5112010;28;20024;-75
2021/09/16 03:13:04;;;;;;;16.27;11.10;;;;;;;19.24;47.87;99708.84;5111654;28;20097;-75
2021/09/16 03:15:30;;;;;;;12.95;10.48;;;;;;;19.02;47.81;99698.69;5111377;28;20030;-75
2021/09/16 03:17:55;;;;;;;11.85;9.93;;;;;;;19.00;47.92;99691.94;5109953;28;20040;-76
2021/09/16 03:20:21;;;;;;;12.00;10.80;;;;;;;19.19;47.88;99730.16;5111442;28;20106;-75
2021/09/16 03:22:46;;;;;;;12.43;11.07;;;;;;;19.27;47.89;99725.28;5110272;28;20110;-76
2021/09/16 03:25:12;;;;;;;11.57;10.45;;;;;;;19.31;47.97;99741.69;5110052;28;20081;-79
2021/09/16 03:27:37;;;;;;;11.05;10.05;;;;;;;19.07;47.92;99699.88;5111441;28;20023;-79
2021/09/16 03:30:05;;;;;;;12.38;10.73;;;;;;;19.09;47.89;99700.44;5111723;28;20023;-80
2021/09/16 03:32:30;;;;;;;11.23;10.13;;;;;;;19.38;47.95;99747.78;5111633;28;20042;-80
2021/09/16 03:34:56;;;;;;;12.18;9.98;;;;;;;18.71;47.96;99648.13;5112640;28;20484;-80
2021/09/16 03:37:21;;;;;;;13.30;10.57;;;;;;;18.94;47.99;99696.34;5115499;28;20015;-79
2021/09/16 03:39:47;;;;;;;14.98;11.07;;;;;;;18.77;48.02;99679.31;5115330;28;20564;-79
2021/09/16 03:42:12;;;;;;;11.68;10.43;;;;;;;19.00;48.30;99732.06;5115467;28;20027;-80
2021/09/16 03:44:38;;;;;;;12.68;10.43;;;;;;;18.86;48.39;99714.59;5114083;28;20472;-79
2021/09/16 03:47:05;;;;;;;11.30;9.90;;;;;;;19.15;48.41;99769.13;5114027;28;20399;-79
2021/09/16 03:49:30;;;;;;;12.88;11.02;;;;;;;19.20;48.39;99762.03;5113969;28;20015;-80
2021/09/16 03:51:56;;;;;;;18.20;11.23;;;;;;;18.97;48.35;99733.34;5115260;28;20026;-78
2021/09/16 03:54:22;;;;;;;14.32;11.13;;;;;;;18.92;48.33;99732.41;5115434;28;20415;-80
2021/09/16 03:56:47;;;;;;;12.45;11.25;;;;;;;18.67;48.31;99711.13;5115149;28;20080;-80
2021/09/16 03:59:12;;;;;;;14.32;11.73;;;;;;;18.58;48.44;99694.56;5115124;28;20016;-80
2021/09/16 04:01:38;;;;;;;14.82;12.70;;;;;;;18.38;48.54;99673.41;5115226;28;20016;-79
2021/09/16 04:04:04;;;;;;;15.38;12.75;;;;;;;18.85;48.34;99748.53;5114979;28;20016;-80
2021/09/16 04:06:29;;;;;;;14.93;12.45;;;;;;;18.64;48.44;99719.63;5115001;28;20560;-80
2021/09/16 04:08:55;;;;;;;15.38;11.57;;;;;;;18.84;48.40;99751.44;5115082;28;20148;-79
2021/09/16 04:11:20;;;;;;;12.10;10.80;;;;;;;18.31;48.31;99655.81;5114586;28;20098;-79
2021/09/16 04:13:45;;;;;;;15.27;12.38;;;;;;;18.50;48.74;99716.25;5114547;28;20484;-79
2021/09/16 04:16:11;;;;;;;14.63;12.68;;;;;;;18.88;48.58;99782.06;5113194;28;20101;-79
2021/09/16 04:18:36;;;;;;;16.13;12.20;;;;;;;18.88;48.51;99782.88;5114578;28;20415;-79
2021/09/16 04:21:02;;;;;;;13.45;11.32;;;;;;;18.92;48.46;99778.69;5114764;28;20023;-80
2021/09/16 04:23:27;;;;;;;16.70;12.07;;;;;;;18.93;48.70;99771.50;5114787;28;20016;-75
2021/09/16 04:25:52;;;;;;;15.35;12.45;;;;;;;18.79;48.51;99745.97;5113195;28;20054;-76
2021/09/16 04:28:18;;;;;;;19.65;12.77;;;;;;;18.83;48.55;99750.63;5114423;28;20477;-75
2021/09/16 04:30:43;;;;;;;19.08;12.93;;;;;;;18.99;48.43;99778.59;5114390;28;20458;-76
2021/09/16 04:33:09;;;;;;;18.30;12.80;;;;;;;19.00;48.25;99778.38;5114247;28;20023;-76
2021/09/16 04:35:34;;;;;;;16.45;12.98;;;;;;;18.33;48.37;99675.94;5114373;28;20020;-76
2021/09/16 04:37:59;;;;;;;16.98;11.82;;;;;;;19.09;48.38;99792.25;5114158;28;20106;-76
2021/09/16 04:40:25;;;;;;;16.92;12.93;;;;;;;19.06;48.45;99776.66;5112966;28;20503;-75
2021/09/16 04:42:50;;;;;;;18.15;12.30;;;;;;;19.03;48.20;99764.53;5113979;28;20027;-75
2021/09/16 04:45:16;;;;;;;15.48;12.18;;;;;;;18.74;48.46;99727.91;5112948;28;20028;-75
2021/09/16 04:47:41;;;;;;;14.35;12.40;;;;;;;19.12;48.47;99791.00;5114127;28;20023;-75
2021/09/16 04:50:09;;;;;;;15.20;11.50;;;;;;;19.07;48.51;99777.47;5114122;28;20020;-75
2021/09/16 04:52:35;;;;;;;19.25;12.82;;;;;;;19.20;48.50;99794.16;5113882;28;20015;-76
2021/09/16 04:55:00;;;;;;;17.45;13.32;;;;;;;19.18;48.45;99798.09;5114085;28;20031;-75
2021/09/16 04:57:26;;;;;;;18.17;12.98;;;;;;;19.22;48.55;99796.59;5113867;28;20499;-75
2021/09/16 04:59:53;;;;;;;14.40;11.75;;;;;;;18.89;48.22;99739.03;5113814;28;20103;-75
2021/09/16 05:02:19;;;;;;;16.60;11.88;;;;;;;19.30;48.46;99790.94;5113842;28;20050;-76
2021/09/16 05:04:44;;;;;;;14.35;12.55;;;;;;;19.02;48.33;99743.38;5113715;28;20023;-75
2021/09/16 05:07:09;;;;;;;14.85;10.93;;;;;;;19.14;48.32;99765.63;5113701;28;20106;-75
2021/09/16 05:09:35;;;;;;;19.20;12.10;;;;;;;18.90;48.24;99726.47;5113752;28;20012;-75
2021/09/16 05:12:00;;;;;;;17.98;11.65;;;;;;;19.19;48.39;99771.13;5113607;28;20022;-75
2021/09/16 05:14:25;;;;;;;17.00;12.45;;;;;;;19.37;48.33;99791.69;5113454;28;20015;-75
2021/09/16 05:16:51;;;;;;;14.23;11.80;;;;;;;18.91;48.36;99704.81;5103570;28;20127;-75
2021/09/16 05:19:16;;;;;;;16.75;12.52;;;;;;;19.35;48.28;99783.88;5091576;28;20027;-75
2021/09/16 05:21:42;;;;;;;14.98;11.70;;;;;;;19.50;48.31;99782.63;5091959;28;20485;-75
2021/09/16 05:24:07;;;;;;;16.88;11.85;;;;;;;18.86;48.34;99683.28;5092522;28;20016;-79
2021/09/16 05:26:32;;;;;;;17.33;12.90;;;;;;;19.30;48.18;99748.09;5092686;28;20020;-82
2021/09/16 05:28:58;;;;;;;18.15;12.73;;;;;;;18.98;48.12;99683.31;5092115;28;20536;-81
2021/09/16 05:31:23;;;;;;;15.13;12.55;;;;;;;19.63;48.01;99774.41;5092454;28;20016;-82
2021/09/16 05:33:49;;;;;;;18.85;13.75;;;;;;;19.62;48.01;99754.84;5092688;28;20027;-82
2021/09/16 05:36:14;;;;;;;17.98;13.65;;;;;;;19.46;47.79;99711.81;5092850;28;20492;-81
2021/09/16 05:38:39;;;;;;;17.42;12.27;;;;;;;19.49;47.74;99706.00;5092701;28;20113;-81
2021/09/16 05:41:05;;;;;;;17.25;13.00;;;;;;;19.92;47.59;99770.00;5092475;28;20019;-81
2021/09/16 05:43:31;;;;;;;14.77;12.63;;;;;;;19.82;47.64;99742.97;5089696;28;20040;-81
2021/09/16 05:45:56;;;;;;;19.27;13.25;;;;;;;20.11;47.33;99786.78;5088547;28;20102;-81
2021/09/16 05:48:23;;;;;;;20.40;14.05;;;;;;;19.93;47.56;99742.97;5090662;28;20016;-81
2021/09/16 05:50:49;;;;;;;16.92;13.00;;;;;;;20.30;47.47;99788.28;5092222;28;20020;-81
2021/09/16 05:53:14;;;;;;;14.88;12.68;;;;;;;20.28;47.17;99758.22;5092187;28;20023;-81
2021/09/16 05:55:40;;;;;;;18.50;12.95;;;;;;;20.32;47.13;99754.00;5092358;28;20519;-81
2021/09/16 05:58:09;;;;;;;15.63;12.38;;;;;;;20.46;47.07;99765.31;5091494;28;20032;-81
2021/09/16 06:00:34;;;;;;;15.68;12.70;;;;;;;20.24;47.02;99712.28;5091467;28;20024;-81
2021/09/16 06:02:59;;;;;;;18.25;12.80;;;;;;;20.47;46.86;99740.13;5090121;28;20031;-82
2021/09/16 06:05:25;;;;;;;18.90;12.55;;;;;;;20.84;46.87;99781.69;5092062;28;20024;-81
2021/09/16 06:07:50;;;;;;;16.45;12.07;;;;;;;20.53;46.67;99706.97;5090664;28;20032;-81
2021/09/16 06:10:16;;;;;;;28.58;12.07;;;;;;;21.12;46.41;99794.28;5091590;28;20415;-82
2021/09/16 06:12:41;;;;;;;16.17;12.38;;;;;;;20.93;46.39;99742.66;5089971;28;20476;-82
2021/09/16 06:15:08;;;;;;;14.63;12.38;;;;;;;21.33;46.08;99797.34;5091867;28;20028;-82
2021/09/16 06:17:34;;;;;;;18.05;11.65;;;;;;;21.07;45.82;99731.63;5089240;28;20547;-81
2021/09/16 06:19:59;;;;;;;16.55;11.73;;;;;;;21.02;45.87;99710.06;5080220;28;20318;-80
2021/09/16 06:22:25;;;;;;;12.82;11.20;;;;;;;21.56;45.83;99799.94;5080882;28;20074;-81
2021/09/16 06:24:50;;;;;;;13.75;11.50;;;;;;;21.60;45.92;99794.88;5077362;28;20036;-75
2021/09/16 06:27:16;;;;;;;12.73;11.13;;;;;;;21.72;45.65;99809.88;5076602;28;20031;-75
2021/09/16 06:29:41;;;;;;;14.90;10.98;;;;;;;21.79;45.46;99807.84;5069285;28;20035;-73
2021/09/16 06:32:07;;;;;;;35.40;28.38;;;;;;;21.54;45.35;99767.09;5083373;28;20028;-75
2021/09/16 06:34:32;;;;;;;15.88;13.23;;;;;;;21.94;45.27;99798.38;5073466;28;20459;-75
2021/09/16 06:36:58;;;;;;;14.93;12.77;;;;;;;21.99;45.31;99793.88;5074418;28;20113;-77
2021/09/16 06:39:24;;;;;;;13.32;11.27;;;;;;;22.07;45.16;99793.50;5089347;28;20028;-76
2021/09/16 06:41:49;;;;;;;13.25;11.23;;;;;;;21.97;44.90;99773.69;5091309;28;20111;-76
2021/09/16 06:44:15;;;;;;;13.73;11.52;;;;;;;22.10;44.82;99778.75;5088386;28;20032;-76
2021/09/16 06:46:40;;;;;;;12.45;11.07;;;;;;;21.89;45.07;99730.03;5083759;28;20028;-76
2021/09/16 06:49:05;;;;;;;14.90;11.60;;;;;;;22.07;44.69;99747.78;5082913;28;20041;-76
2021/09/16 06:51:31;;;;;;;14.73;12.48;;;;;;;22.47;44.28;99793.25;5074566;28;20463;-75
2021/09/16 06:53:56;;;;;;;17.52;13.82;;;;;;;22.59;44.52;99793.13;5085928;28;20055;-76
2021/09/16 06:56:21;;;;;;;13.35;11.85;;;;;;;22.57;44.62;99781.81;5085633;28;20557;-76
2021/09/16 06:58:47;;;;;;;12.55;11.25;;;;;;;22.68;44.62;99790.81;5090247;28;20028;-76
2021/09/16 07:01:12;;;;;;;16.10;11.77;;;;;;;22.43;44.31;99743.72;5088457;28;20335;-76
2021/09/16 07:03:38;;;;;;;14.55;12.88;;;;;;;22.42;44.18;99725.94;5088819;28;20035;-76
2021/09/16 07:06:03;;;;;;;16.50;13.27;;;;;;;22.94;43.94;99802.72;5091126;28;20028;-76
2021/09/16 07:08:28;;;;;;;15.38;12.27;;;;;;;22.91;43.61;99776.31;5090925;28;20027;-77
2021/09/16 07:10:54;;;;;;;27.08;19.25;;;;;;;22.69;43.56;99742.13;5093437;28;20499;-82
2021/09/16 07:13:19;;;;;;;19.63;15.10;;;;;;;23.03;43.05;99775.09;5095280;28;20051;-82
2021/09/16 07:15:45;;;;;;;22.35;17.63;;;;;;;23.02;42.66;99761.88;5095076;28;20515;-81
2021/09/16 07:18:10;;;;;;;16.00;10.50;;;;;;;22.87;42.30;99734.78;5095259;28;20028;-82
2021/09/16 07:20:36;;;;;;;12.48;11.10;;;;;;;23.26;42.11;99786.66;5095163;28;20056;-82
2021/09/16 07:23:04;;;;;;;19.10;15.32;;;;;;;23.17;41.54;99759.38;5093693;28;20020;-82
2021/09/16 07:25:30;;;;;;;14.75;11.80;;;;;;;23.50;41.34;99801.41;5094387;28;20020;-80
2021/09/16 07:27:55;;;;;;;12.18;10.20;;;;;;;23.13;41.25;99720.53;5094698;28;20034;-82
2021/09/16 07:30:22;;;;;;;15.38;11.23;;;;;;;23.69;40.94;99812.66;5092085;28;20032;-82
2021/09/16 07:32:47;;;;;;;17.88;13.98;;;;;;;23.26;40.86;99724.69;5094760;28;20028;-81
2021/09/16 07:35:12;;;;;;;15.77;9.88;;;;;;;23.83;40.57;99816.56;5094735;28;20423;-82
2021/09/16 07:37:38;;;;;;;19.00;11.73;;;;;;;23.94;40.20;99812.06;5094638;28;20024;-82
2021/09/16 07:40:04;;;;;;;12.35;9.57;;;;;;;24.02;39.92;99820.50;5094572;28;20490;-82
2021/09/16 07:42:30;;;;;;;14.70;10.88;;;;;;;23.63;39.67;99768.69;5094294;28;20088;-82
2021/09/16 07:44:55;;;;;;;13.55;12.15;;;;;;;23.94;39.67;99787.78;5094480;28;20458;-82
2021/09/16 07:47:21;;;;;;;31.52;19.33;;;;;;;23.82;39.19;99750.25;5094458;28;20028;-82
2021/09/16 07:49:47;;;;;;;19.33;15.25;;;;;;;23.91;39.44;99751.38;5082816;28;20024;-82
2021/09/16 07:52:13;;;;;;;17.02;11.98;;;;;;;24.33;39.04;99799.94;5074097;28;20473;-82
2021/09/16 07:54:39;;;;;;;17.73;10.88;;;;;;;24.25;38.73;99770.72;5074132;28;20409;-82
2021/09/16 07:57:05;;;;;;;13.70;10.35;;;;;;;24.53;38.89;99809.22;5074177;28;20035;-83
2021/09/16 07:59:30;;;;;;;13.88;10.57;;;;;;;24.54;38.59;99791.97;5072545;28;20056;-84
2021/09/16 08:01:56;;;;;;;13.40;10.32;;;;;;;24.65;38.71;99799.84;5072494;28;20146;-83
2021/09/16 08:04:22;;;;;;;13.93;9.63;;;;;;;24.78;38.38;99797.72;5074001;28;20056;-82
2021/09/16 08:06:47;;;;;;;11.13;9.38;;;;;;;24.62;38.04;99761.75;5072514;28;20025;-82
2021/09/16 08:09:12;;;;;;;15.00;10.88;;;;;;;24.90;38.09;99796.41;5072536;28;20024;-83
2021/09/16 08:11:39;;;;;;;12.55;10.60;;;;;;;25.06;37.87;99808.09;5073983;28;20039;-82
2021/09/16 08:14:06;;;;;;;13.52;9.80;;;;;;;25.17;37.51;99811.63;5073819;28;20064;-81
2021/09/16 08:16:31;;;;;;;10.40;9.38;;;;;;;24.89;37.34;99764.25;5073628;28;20055;-82
2021/09/16 08:18:56;;;;;;;14.05;10.98;;;;;;;25.26;37.39;99802.72;5073576;28;20032;-81
2021/09/16 08:21:23;;;;;;;13.30;10.70;;;;;;;25.05;37.00;99755.13;5073495;28;20039;-81
2021/09/16 08:23:49;;;;;;;12.23;9.80;;;;;;;24.98;37.11;99741.88;5074057;28;20032;-74
2021/09/16 08:26:14;;;;;;;13.63;9.48;;;;;;;25.50;36.81;99797.66;5073653;28;20031;-76
2021/09/16 08:28:40;;;;;;;12.43;11.32;;;;;;;25.64;36.65;99800.63;5073547;28;20386;-74
2021/09/16 08:31:06;;;;;;;10.70;9.70;;;;;;;25.75;36.46;99794.16;5073461;28;20024;-75
2021/09/16 08:33:31;;;;;;;9.40;8.50;;;;;;;25.86;36.45;99792.25;5072368;28;20044;-73
2021/09/16 08:35:57;;;;;;;13.23;10.25;;;;;;;26.00;36.07;99796.00;5073484;28;20025;-76
2021/09/16 08:38:23;;;;;;;10.63;9.57;;;;;;;25.52;35.79;99695.44;5073197;28;20029;-75
2021/09/16 08:40:48;;;;;;;9.48;8.63;;;;;;;26.23;35.33;99784.63;5073234;28;20086;-73
2021/09/16 08:43:15;;;;;;;9.90;8.88;;;;;;;26.27;35.33;99769.44;5073223;28;20135;-75
2021/09/16 08:45:41;;;;;;;10.15;8.55;;;;;;;26.48;35.04;99775.63;5073870;28;20036;-77
2021/09/16 08:48:07;;;;;;;10.70;8.88;;;;;;;26.52;34.81;99763.16;5073435;28;20086;-76
2021/09/16 08:50:33;;;;;;;11.82;8.50;;;;;;;26.46;34.56;99736.38;5071977;28;20120;-76
2021/09/16 08:52:59;;;;;;;10.50;9.48;;;;;;;26.70;34.37;99739.25;5073555;28;20024;-76
2021/09/16 08:55:25;;;;;;;10.80;8.98;;;;;;;27.07;34.02;99771.31;5073402;28;20031;-76
2021/09/16 08:58:03;;;;;;;11.15;9.30;;;;;;;26.79;33.99;99705.09;5073295;28;20036;-75
2021/09/16 09:00:32;;;;;;;13.60;10.63;;;;;;;27.23;33.83;99745.72;5071688;28;20021;-75
2021/09/16 09:02:58;;;;;;;10.85;9.55;;;;;;;27.40;33.77;99751.56;5071660;28;20024;-75
2021/09/16 09:05:26;;;;;;;22.85;16.60;;;;;;;27.67;33.78;99755.72;5072861;28;20031;-74
2021/09/16 09:07:54;;;;;;;13.85;10.93;;;;;;;27.69;33.72;99729.94;5072732;28;20117;-76
2021/09/16 09:10:32;;;;;;;14.07;11.68;;;;;;;28.02;33.70;99757.25;5072734;28;20021;-74
2021/09/16 09:12:58;;;;;;;12.88;9.30;;;;;;;27.94;32.89;99725.31;5072473;28;20032;-74
2021/09/16 09:15:24;;;;;;;10.27;9.27;;;;;;;28.12;32.67;99749.81;5072514;28;20028;-75
2021/09/16 09:18:04;;;;;;;10.30;9.13;;;;;;;28.17;32.20;99738.91;5072466;28;20456;-75
2021/09/16 09:20:30;;;;;;;16.02;14.30;;;;;;;28.39;32.16;99743.06;5072717;28;20394;-75
2021/09/16 09:22:56;;;;;;;11.27;10.07;;;;;;;28.16;31.82;99672.13;5072694;28;20028;-75
2021/09/16 09:25:23;;;;;;;11.60;10.40;;;;;;;28.44;31.99;99686.75;5072787;28;20115;-74
2021/09/16 09:27:54;;;;;;;11.18;10.07;;;;;;;28.78;31.68;99707.47;5072539;28;20504;-75
2021/09/16 09:30:20;;;;;;;;;;;;;;;29.03;31.08;99733.53;5073031;28;20024;-75
2021/09/16 09:33:00;;;;;;;9.85;8.48;;;;;;;29.25;30.30;99730.19;5071703;28;19915;-75
2021/09/16 09:35:28;;;;;;;10.38;9.38;;;;;;;29.39;30.73;99731.03;5072531;28;20115;-75
2021/09/16 09:37:55;;;;;;;9.45;8.45;;;;;;;29.19;30.57;99682.44;5072543;28;20029;-75
2021/09/16 09:40:37;;;;;;;12.55;9.23;;;;;;;29.70;30.29;99723.19;5070828;28;20033;-74
2021/09/16 09:43:34;;;;;;;10.90;9.48;;;;;;;29.99;29.33;99728.38;5072283;28;20032;-75
2021/09/16 09:46:05;;;;;;;10.60;9.38;;;;;;;30.00;29.76;99719.91;5072251;28;20032;-76
2021/09/16 09:48:33;;;;;;;17.63;15.70;;;;;;;30.12;29.27;99716.72;5071610;28;20031;-74
2021/09/16 09:50:59;;;;;;;11.45;10.35;;;;;;;30.32;29.35;99713.56;5089454;28;20056;-74
2021/09/16 09:53:26;;;;;;;17.27;14.98;;;;;;;30.46;28.89;99716.28;5090541;28;20020;-75
2021/09/16 09:55:51;;;;;;;14.27;12.88;;;;;;;30.50;28.95;99694.69;5090709;28;20023;-74
2021/09/16 09:58:32;;;;;;;10.48;9.23;;;;;;;30.65;28.69;99689.75;5091881;28;20020;-74
2021/09/16 10:01:25;;;;;;;10.73;9.63;;;;;;;30.99;28.88;99710.22;5092315;28;20418;-75
2021/09/16 10:03:50;;;;;;;12.18;9.88;;;;;;;30.90;28.82;99682.09;5092022;28;20032;-75
2021/09/16 10:06:16;;;;;;;14.35;9.00;;;;;;;31.04;28.06;99671.91;5092204;28;20074;-74
2021/09/16 10:08:41;;;;;;;12.88;11.52;;;;;;;31.11;28.04;99663.31;5092222;28;20016;-74
2021/09/16 10:11:07;;;;;;;16.98;13.43;;;;;;;31.53;27.43;99705.66;5091933;28;20408;-74
2021/09/16 10:13:34;;;;;;;16.60;10.10;;;;;;;31.38;27.09;99676.84;5091669;28;20459;-75
2021/09/16 10:16:05;;;;;;;14.20;9.20;;;;;;;31.63;27.00;99702.66;5091436;28;20027;-74
2021/09/16 10:18:32;;;;;;;8.88;7.97;;;;;;;31.69;26.70;99689.69;5091521;28;20028;-76
2021/09/16 10:21:00;;;;;;;11.90;8.40;;;;;;;31.63;26.44;99666.38;5090430;28;20462;-75
2021/09/16 10:23:28;;;;;;;10.77;9.77;;;;;;;32.02;26.17;99691.00;5091844;28;20055;-81
2021/09/16 10:25:54;;;;;;;20.70;18.42;;;;;;;31.88;26.23;99639.19;5091709;28;20063;-81
2021/09/16 10:28:20;;;;;;;18.75;16.77;;;;;;;32.38;26.18;99695.44;5091638;28;20024;-81
2021/09/16 10:30:47;;;;;;;15.20;12.40;;;;;;;32.34;26.05;99689.81;5091672;28;20066;-82
2021/09/16 10:33:16;;;;;;;34.08;29.95;;;;;;;32.48;26.00;99687.75;5091588;28;20027;-80
2021/09/16 10:35:41;;;;;;;26.20;23.40;;;;;;;32.63;26.20;99691.94;5091654;28;20102;-81
2021/09/16 10:38:27;;;;;;;17.08;15.45;;;;;;;32.81;25.49;99690.88;5090104;28;20063;-81
2021/09/16 10:41:13;;;;;;;9.40;8.40;;;;;;;32.92;24.53;99669.47;5091494;28;20504;-82
2021/09/16 10:43:39;;;;;;;13.60;12.30;;;;;;;33.04;25.26;99679.75;5091585;28;20036;-81
2021/09/16 10:46:21;;;;;;;10.85;9.48;;;;;;;33.24;25.30;99667.31;5091206;28;20032;-81
2021/09/16 10:48:47;;;;;;;10.23;8.13;;;;;;;33.37;24.53;99658.94;5089792;28;20408;-82
2021/09/16 10:51:13;;;;;;;9.40;8.38;;;;;;;33.44;24.26;99659.28;5091241;28;20020;-81
2021/09/16 10:53:46;;;;;;;8.07;7.28;;;;;;;33.54;23.42;99666.31;5091252;28;20407;-81
2021/09/16 10:56:33;;;;;;;9.50;7.50;;;;;;;33.55;23.80;99659.72;5089743;28;20493;-82
2021/09/16 10:58:59;;;;;;;13.82;11.30;;;;;;;33.34;23.83;99639.63;5091140;28;20028;-82
2021/09/16 11:01:53;;;;;;;10.45;7.43;;;;;;;33.63;22.81;99652.59;5090920;28;20058;-80
2021/09/16 11:04:19;;;;;;;8.23;7.40;;;;;;;33.57;23.32;99626.53;5084138;28;20146;-81
2021/09/16 11:06:45;;;;;;;13.52;7.45;;;;;;;33.47;23.31;99614.81;5069348;28;20129;-80
2021/09/16 11:09:12;;;;;;;12.27;8.27;;;;;;;33.42;22.97;99603.22;5081980;28;20489;-81
2021/09/16 11:12:28;;;;;;;9.43;7.60;;;;;;;33.58;23.10;99623.47;5090622;28;20031;-80
2021/09/16 11:14:56;;;;;;;10.13;7.25;;;;;;;33.13;22.91;99557.41;5048270;28;20538;-82
2021/09/16 11:17:26;;;;;;;8.70;7.43;;;;;;;33.78;22.61;99646.56;5087086;28;20473;-81
2021/09/16 11:19:52;;;;;;;11.07;7.70;;;;;;;33.57;22.70;99591.75;5090721;28;20039;-81